Weather History for Sterling Muni, Sterling, CO, CO

Change the Weather History Date:

Wednesday, December 5, 2012

  Actual Average Record
Temperature  
Mean Temperature 44 °F -  
Max Temperature 60 °F 47 °F 14 °F (2013)
Min Temperature 28 °F 16 °F -9 °F (2013)
Degree Days  
Heating Degree Days 21    
Moisture  
Dew Point 26 °F    
Average Humidity 53    
Maximum Humidity 75    
Minimum Humidity 29    
Precipitation  
Precipitation 0.00 in - - ()
Sea Level Pressure  
Sea Level Pressure 29.93 in    
Wind  
Wind Speed 6 mph ()    
Max Wind Speed 26 mph    
Max Gust Speed 33 mph    
Visibility 10.0 miles    
Events      
Averages and records for this station are not official NWS values.
T = Trace of Precipitation, MM = Missing Value Source: Averaged Metar Reports

Daily Weather History Graph

Daily Weather History Graph

Search for Another Location

Airport:

Trip Planner

Search our weather history database for the weather conditions in past years. The results will help you decide how hot, cold, wet, or windy it might be!

Date:

Astronomy

Dec. 05, 2012 Rise Set
Actual Time 7:01 AM MST 4:25 PM MST
Civil Twilight 6:31 AM MST 4:56 PM MST
Nautical Twilight 5:57 AM MST 5:30 PM MST
Astronomical Twilight 5:24 AM MST 6:03 PM MST
Moon 11:19 PM MST (12/5) 11:25 AM MST (12/5)
Length of Visible Light 10h 25m
Length of Day
9h 23m
Waning Gibbous, 59% of the Moon is Illuminated
Dec 5
Waning Gibbous
Dec 6
Last Quarter
Dec 13
New
Dec 19
First Quarter
Dec 28
Full

Hourly Weather History & Observations

Time (MST) Temp. Windchill Dew Point Humidity Pressure Visibility Wind Dir Wind Speed Gust Speed Precip Events Conditions
12:15 AM 28.4 °F 19.1 °F 19.4 °F 69% 30.15 in 10.0 mi West 10.4 mph - N/A   Clear
12:55 AM 28.4 °F - 19.4 °F 69% 30.13 in 10.0 mi Calm Calm - N/A   Clear
1:15 AM 28.4 °F 24.6 °F 21.2 °F 74% 30.12 in 10.0 mi South 3.5 mph - N/A   Clear
1:35 AM 28.4 °F 22.2 °F 21.2 °F 74% 30.13 in 10.0 mi WSW 5.8 mph - N/A   Clear
1:55 AM 28.4 °F 20.4 °F 21.2 °F 74% 30.13 in 10.0 mi SW 8.1 mph - N/A   Clear
2:15 AM 28.4 °F 21.2 °F 19.4 °F 69% 30.13 in 10.0 mi WSW 6.9 mph - N/A   Clear
2:35 AM 28.4 °F 23.3 °F 19.4 °F 69% 30.13 in 10.0 mi WSW 4.6 mph - N/A   Clear
2:55 AM 28.4 °F 21.2 °F 19.4 °F 69% 30.12 in 10.0 mi South 6.9 mph - N/A   Clear
3:15 AM 28.4 °F 20.4 °F 21.2 °F 74% 30.12 in 10.0 mi SSW 8.1 mph - N/A   Clear
3:35 AM 28.4 °F 20.4 °F 21.2 °F 74% 30.11 in 10.0 mi South 8.1 mph - N/A   Clear
3:55 AM 28.4 °F 22.2 °F 21.2 °F 74% 30.09 in 10.0 mi SSW 5.8 mph - N/A   Clear
4:15 AM 30.2 °F 24.3 °F 21.2 °F 69% 30.09 in 10.0 mi WSW 5.8 mph - N/A   Clear
4:35 AM 28.4 °F 23.3 °F 21.2 °F 74% 30.09 in 10.0 mi SSW 4.6 mph - N/A   Clear
4:55 AM 28.4 °F 23.3 °F 21.2 °F 74% 30.09 in 10.0 mi South 4.6 mph - N/A   Clear
5:15 AM 30.2 °F - 21.2 °F 69% 30.09 in 10.0 mi Calm Calm - N/A   Clear
5:35 AM 30.2 °F 26.7 °F 23.0 °F 75% 30.08 in 10.0 mi South 3.5 mph - N/A   Clear
5:55 AM 30.2 °F 24.3 °F 23.0 °F 75% 30.06 in 10.0 mi SW 5.8 mph - N/A   Clear
7:35 AM 32.0 °F 25.6 °F 23.0 °F 69% 30.06 in 10.0 mi West 6.9 mph - N/A   Clear
7:55 AM 32.0 °F 26.4 °F 23.0 °F 69% 30.04 in 10.0 mi SW 5.8 mph - N/A   Clear
8:15 AM 33.8 °F 29.6 °F 23.0 °F 65% 30.04 in 10.0 mi South 4.6 mph - N/A   Clear
8:35 AM 33.8 °F 30.8 °F 26.6 °F 75% 30.03 in 10.0 mi SW 3.5 mph - N/A   Clear
8:55 AM 35.6 °F 29.2 °F 23.0 °F 60% 30.02 in 10.0 mi South 8.1 mph - N/A   Clear
9:15 AM 37.4 °F 31.4 °F 26.6 °F 65% 30.00 in 10.0 mi SSW 8.1 mph - N/A   Clear
9:35 AM 37.4 °F 32.8 °F 24.8 °F 60% 30.00 in 10.0 mi SSW 5.8 mph - N/A   Clear
9:55 AM 41.0 °F 34.7 °F 24.8 °F 53% 29.98 in 10.0 mi SSW 10.4 mph - N/A   Clear
10:15 AM 44.6 °F 38.8 °F 26.6 °F 49% 29.97 in 10.0 mi SW 11.5 mph - N/A   Clear
10:35 AM 46.4 °F 41.9 °F 26.6 °F 46% 29.95 in 10.0 mi SW 9.2 mph - N/A   Clear
10:55 AM 46.4 °F 42.9 °F 24.8 °F 43% 29.93 in 10.0 mi SSW 6.9 mph - N/A   Clear
11:15 AM 48.2 °F - 26.6 °F 43% 29.92 in 10.0 mi SSW 6.9 mph - N/A   Clear
11:35 AM 51.8 °F - 26.6 °F 38% 29.90 in 10.0 mi SW 8.1 mph - N/A   Clear
11:55 AM 55.4 °F - 26.6 °F 33% 29.90 in 10.0 mi WSW 11.5 mph - N/A   Clear
12:15 PM 55.4 °F - 26.6 °F 33% 29.89 in 10.0 mi WSW 4.6 mph - N/A   Clear
12:35 PM 57.2 °F - 28.4 °F 33% 29.88 in 10.0 mi SSW 6.9 mph - N/A   Clear
12:55 PM 57.2 °F - 28.4 °F 33% 29.86 in 10.0 mi SW 9.2 mph - N/A   Clear
1:15 PM 60.8 °F - 28.4 °F 29% 29.85 in 10.0 mi SSW 8.1 mph - N/A   Clear
1:35 PM 60.8 °F - 28.4 °F 29% 29.85 in 10.0 mi SSW 6.9 mph - N/A   Clear
1:55 PM 60.8 °F - 30.2 °F 31% 29.84 in 10.0 mi South 5.8 mph - N/A   Clear
2:15 PM 60.8 °F - 30.2 °F 31% 29.83 in 10.0 mi SSW 5.8 mph - N/A   Clear
2:35 PM 59.0 °F - 30.2 °F 34% 29.83 in 10.0 mi SSW 5.8 mph - N/A   Clear
2:55 PM 57.2 °F - 30.2 °F 36% 29.82 in 10.0 mi South 5.8 mph - N/A   Clear
3:15 PM 53.6 °F - 30.2 °F 41% 29.82 in 10.0 mi SSW 4.6 mph - N/A   Clear
3:35 PM 53.6 °F - 30.2 °F 41% 29.81 in 10.0 mi SSW 3.5 mph - N/A   Clear
3:55 PM 51.8 °F - 30.2 °F 44% 29.81 in 10.0 mi Calm Calm - N/A   Clear
4:15 PM 53.6 °F - 30.2 °F 41% 29.81 in 10.0 mi Calm Calm - N/A   Clear
4:35 PM 51.8 °F - 30.2 °F 44% 29.81 in 10.0 mi Calm Calm - N/A   Clear
4:55 PM 46.4 °F 42.9 °F 30.2 °F 53% 29.81 in 10.0 mi North 6.9 mph - N/A   Clear
5:15 PM 48.2 °F - 30.2 °F 50% 29.82 in 10.0 mi North 3.5 mph - N/A   Clear
5:35 PM 50.0 °F - 30.2 °F 47% 29.82 in 10.0 mi North 3.5 mph - N/A   Clear
5:55 PM 46.4 °F - 30.2 °F 53% 29.81 in 10.0 mi Calm Calm - N/A   Clear
6:15 PM 44.6 °F 43.1 °F 30.2 °F 57% 29.81 in 10.0 mi NNW 3.5 mph - N/A   Clear
6:35 PM 44.6 °F 43.1 °F 30.2 °F 57% 29.82 in 10.0 mi NW 3.5 mph - N/A   Clear
6:55 PM 44.6 °F 43.1 °F 30.2 °F 57% 29.82 in 10.0 mi NW 3.5 mph - N/A   Clear
7:15 PM 46.4 °F 44.3 °F 32.0 °F 57% 29.82 in 10.0 mi NNW 4.6 mph - N/A   Clear
7:35 PM 46.4 °F 44.3 °F 32.0 °F 57% 29.84 in 10.0 mi North 4.6 mph - N/A   Clear
7:55 PM 46.4 °F 44.3 °F 30.2 °F 53% 29.83 in 10.0 mi NNW 4.6 mph - N/A   Clear
8:15 PM 46.4 °F 42.9 °F 30.2 °F 53% 29.84 in 10.0 mi NW 6.9 mph - N/A   Clear
8:35 PM 51.8 °F - 28.4 °F 41% 29.83 in 10.0 mi NW 11.5 mph - N/A   Clear
8:55 PM 53.6 °F - 26.6 °F 35% 29.83 in 10.0 mi NNW 5.8 mph - N/A   Clear
9:15 PM 46.4 °F - 30.2 °F 53% 29.82 in 10.0 mi Calm Calm - N/A   Clear
9:35 PM 42.8 °F - 30.2 °F 61% 29.83 in 10.0 mi Calm Calm - N/A   Scattered Clouds
9:55 PM 46.4 °F 44.3 °F 32.0 °F 57% 29.83 in 10.0 mi SSE 4.6 mph - N/A   Mostly Cloudy
10:15 PM 46.4 °F 45.2 °F 30.2 °F 53% 29.83 in 10.0 mi NNW 3.5 mph - N/A   Overcast
10:35 PM 55.4 °F - 28.4 °F 36% 29.83 in 10.0 mi NNW 18.4 mph 23.0 mph N/A   Overcast
10:55 PM 57.2 °F - 28.4 °F 33% 29.83 in 10.0 mi NNW 26.5 mph 29.9 mph N/A   Mostly Cloudy
11:15 PM 57.2 °F - 28.4 °F 33% 29.83 in 10.0 mi NW 26.5 mph 33.4 mph N/A   Mostly Cloudy
11:35 PM 57.2 °F - 28.4 °F 33% 29.85 in 10.0 mi NNW 21.9 mph - N/A   Mostly Cloudy
11:55 PM 55.4 °F - 26.6 °F 33% 29.85 in 10.0 mi NNW 17.3 mph 24.2 mph N/A   Mostly Cloudy